createdAt,value
2018-01-20T00:00:16.403Z,1.20
2018-01-20T00:02:44.157Z,1.20
2018-01-20T00:05:11.907Z,1.20
2018-01-20T00:07:39.384Z,1.30
2018-01-20T00:10:18.940Z,1.30
2018-01-20T00:12:46.682Z,1.30
2018-01-20T00:15:14.322Z,1.30
2018-01-20T00:17:41.907Z,1.30
2018-01-20T00:20:09.681Z,1.30
2018-01-20T00:22:37.337Z,1.40
2018-01-20T00:25:04.892Z,1.40
2018-01-20T00:27:38.038Z,1.40
2018-01-20T00:30:05.510Z,1.40
2018-01-20T00:32:32.986Z,1.40
2018-01-20T00:35:00.462Z,1.30
2018-01-20T00:37:28.017Z,1.30
2018-01-20T00:39:56.087Z,1.30
2018-01-20T00:42:23.546Z,1.30
2018-01-20T00:44:51.302Z,1.20
2018-01-20T00:47:19.139Z,1.20
2018-01-20T00:49:46.578Z,1.20
2018-01-20T00:52:14.309Z,1.20
2018-01-20T00:54:41.924Z,1.20
2018-01-20T00:57:09.510Z,1.20
2018-01-20T00:59:36.956Z,1.20
2018-01-20T01:02:04.636Z,1.20
2018-01-20T01:04:32.191Z,1.20
2018-01-20T01:06:59.627Z,1.30
2018-01-20T01:09:27.073Z,1.30
2018-01-20T01:11:55.255Z,1.20
2018-01-20T01:14:22.808Z,1.20
2018-01-20T01:16:50.397Z,1.30
2018-01-20T01:19:17.853Z,1.30
2018-01-20T01:21:45.629Z,1.30
2018-01-20T01:24:13.286Z,1.40
2018-01-20T01:26:40.714Z,1.40
2018-01-20T01:29:08.277Z,1.40
2018-01-20T01:31:36.024Z,1.40
2018-01-20T01:34:03.705Z,1.40
2018-01-20T01:36:31.306Z,1.40
2018-01-20T01:38:58.749Z,1.50
2018-01-20T01:41:26.182Z,1.40
2018-01-20T01:43:53.626Z,1.50
2018-01-20T01:46:21.322Z,1.50
2018-01-20T01:48:49.050Z,1.50
2018-01-20T01:51:16.814Z,1.40
2018-01-20T01:53:44.710Z,1.40
2018-01-20T01:56:12.398Z,1.40
2018-01-20T01:58:39.836Z,1.50
2018-01-20T02:01:07.297Z,1.50
2018-01-20T02:03:34.750Z,1.50
2018-01-20T02:06:02.198Z,1.50
2018-01-20T02:08:29.765Z,1.60
2018-01-20T02:10:57.536Z,1.60
2018-01-20T02:13:25.195Z,1.60
2018-01-20T02:15:52.966Z,1.60
2018-01-20T02:18:20.708Z,1.50
2018-01-20T02:20:48.154Z,1.60
2018-01-20T02:23:15.606Z,1.60
2018-01-20T02:25:43.054Z,1.60
2018-01-20T02:28:11.129Z,1.60
2018-01-20T02:30:38.662Z,1.60
2018-01-20T02:33:06.089Z,1.60
2018-01-20T02:35:33.922Z,1.60
2018-01-20T02:38:01.420Z,1.70
2018-01-20T02:40:30.996Z,1.70
2018-01-20T02:42:58.475Z,1.70
2018-01-20T02:45:26.217Z,1.80
2018-01-20T02:47:53.649Z,1.80
2018-01-20T02:50:21.450Z,1.80
2018-01-20T02:52:49.210Z,1.80
2018-01-20T02:55:16.956Z,1.80
2018-01-20T02:57:44.637Z,1.80
2018-01-20T03:00:12.394Z,1.90
2018-01-20T03:02:40.186Z,1.90
2018-01-20T03:05:07.633Z,1.90
2018-01-20T03:07:35.109Z,1.90
2018-01-20T03:10:02.826Z,1.90
2018-01-20T03:12:30.313Z,1.90
2018-01-20T03:14:57.780Z,2.00
2018-01-20T03:17:25.418Z,1.90
2018-01-20T03:19:53.032Z,1.90
2018-01-20T03:22:20.731Z,1.90
2018-01-20T03:24:48.306Z,2.00
2018-01-20T03:27:16.089Z,1.90
2018-01-20T03:29:43.538Z,2.00
2018-01-20T03:32:10.976Z,2.00
2018-01-20T03:34:38.436Z,2.00
2018-01-20T03:37:05.927Z,2.10
2018-01-20T03:39:33.525Z,2.00
2018-01-20T03:42:01.410Z,2.00
2018-01-20T03:44:28.845Z,2.00
2018-01-20T03:46:56.507Z,2.00
2018-01-20T03:49:24.107Z,2.10
2018-01-20T03:51:51.866Z,2.10
2018-01-20T03:54:19.501Z,2.10
2018-01-20T03:56:46.938Z,2.00
2018-01-20T03:59:16.081Z,2.00
2018-01-20T04:01:43.844Z,2.00
2018-01-20T04:04:11.512Z,2.00
2018-01-20T04:06:39.069Z,2.00
2018-01-20T04:09:07.121Z,2.00
2018-01-20T04:11:34.902Z,2.00
2018-01-20T04:14:02.341Z,1.90
2018-01-20T04:16:29.853Z,1.80
2018-01-20T04:18:57.458Z,1.90
2018-01-20T04:21:25.590Z,1.80
2018-01-20T04:23:53.022Z,1.70
2018-01-20T04:26:20.466Z,1.60
2018-01-20T04:28:47.922Z,1.60
2018-01-20T04:31:15.414Z,1.70
2018-01-20T04:33:43.250Z,1.70
2018-01-20T04:36:10.694Z,1.70
2018-01-20T04:38:38.334Z,1.70
2018-01-20T04:41:05.825Z,1.60
2018-01-20T04:43:33.548Z,1.60
2018-01-20T04:46:01.329Z,1.50
2018-01-20T04:48:29.082Z,1.60
2018-01-20T04:50:56.539Z,1.50
2018-01-20T04:53:24.010Z,1.50
2018-01-20T04:55:51.501Z,1.50
2018-01-20T04:58:19.345Z,1.50
2018-01-20T05:00:46.989Z,1.60
2018-01-20T05:03:14.460Z,1.50
2018-01-20T05:05:41.921Z,1.50
2018-01-20T05:08:09.385Z,1.50
2018-01-20T05:10:36.853Z,1.60
2018-01-20T05:13:04.310Z,1.50
2018-01-20T05:15:31.762Z,1.50
2018-01-20T05:17:59.630Z,1.60
2018-01-20T05:20:27.382Z,1.50
2018-01-20T05:22:54.836Z,1.50
2018-01-20T05:25:22.473Z,1.60
2018-01-20T05:27:49.912Z,1.60
2018-01-20T05:30:18.158Z,1.60
2018-01-20T05:32:45.593Z,1.60
2018-01-20T05:35:13.231Z,1.70
2018-01-20T05:37:41.588Z,1.70
2018-01-20T05:40:09.990Z,1.80
2018-01-20T05:42:37.469Z,1.80
2018-01-20T05:45:04.914Z,1.80
2018-01-20T05:47:32.398Z,1.80
2018-01-20T05:49:59.925Z,1.80
2018-01-20T05:52:27.597Z,1.80
2018-01-20T05:54:55.374Z,1.80
2018-01-20T05:57:23.130Z,1.80
2018-01-20T05:59:50.879Z,1.90
2018-01-20T06:02:18.634Z,1.80
2018-01-20T06:04:46.410Z,1.90
2018-01-20T06:07:13.853Z,1.80
2018-01-20T06:09:41.345Z,1.90
2018-01-20T06:12:09.085Z,1.90
2018-01-20T06:14:36.591Z,1.90
2018-01-20T06:17:04.023Z,1.90
2018-01-20T06:19:31.887Z,1.90
2018-01-20T06:21:59.527Z,1.90
2018-01-20T06:24:27.006Z,1.90
2018-01-20T06:26:54.853Z,1.80
2018-01-20T06:29:22.306Z,1.90
2018-01-20T06:31:49.962Z,1.90
2018-01-20T06:34:17.453Z,1.90
2018-01-20T06:36:44.893Z,1.90
2018-01-20T06:39:12.623Z,2.00
2018-01-20T06:41:41.023Z,2.00
2018-01-20T06:44:08.610Z,1.90
2018-01-20T06:46:36.102Z,1.90
2018-01-20T06:49:03.730Z,1.90
2018-01-20T06:51:31.174Z,2.00
2018-01-20T06:53:58.662Z,2.00
2018-01-20T06:56:26.489Z,2.00
2018-01-20T06:58:53.926Z,2.00
2018-01-20T07:01:21.599Z,2.00
2018-01-20T07:03:49.130Z,2.10
2018-01-20T07:06:16.950Z,2.00
2018-01-20T07:08:44.699Z,2.10
2018-01-20T07:11:12.156Z,2.20
2018-01-20T07:13:39.614Z,2.10
2018-01-20T07:16:07.305Z,2.10
2018-01-20T07:18:35.051Z,2.10
2018-01-20T07:21:02.817Z,2.20
2018-01-20T07:23:30.274Z,2.20
2018-01-20T07:25:57.829Z,2.20
2018-01-20T07:28:25.487Z,2.20
2018-01-20T07:30:53.056Z,2.20
2018-01-20T07:33:20.585Z,2.20
2018-01-20T07:35:48.298Z,2.30
2018-01-20T07:38:16.034Z,2.30
2018-01-20T07:40:43.481Z,2.30
2018-01-20T07:43:10.939Z,2.20
2018-01-20T07:45:38.666Z,2.20
2018-01-20T07:48:06.354Z,2.20
2018-01-20T07:50:34.421Z,2.30
2018-01-20T07:53:01.987Z,2.30
2018-01-20T07:55:30.393Z,2.40
2018-01-20T07:57:57.852Z,2.40
2018-01-20T08:00:25.617Z,2.40
2018-01-20T08:02:53.258Z,2.30
2018-01-20T08:05:20.834Z,2.30
2018-01-20T08:07:48.617Z,2.40
2018-01-20T08:10:16.845Z,2.30
2018-01-20T08:12:44.465Z,2.40
2018-01-20T08:15:11.894Z,2.30
2018-01-20T08:17:39.345Z,2.40
2018-01-20T08:20:07.277Z,2.40
2018-01-20T08:22:34.720Z,2.40
2018-01-20T08:25:02.924Z,2.50
2018-01-20T08:27:30.889Z,2.50
2018-01-20T08:29:58.397Z,2.50
2018-01-20T08:32:25.894Z,2.50
2018-01-20T08:34:53.357Z,2.50
2018-01-20T08:37:21.159Z,2.50
2018-01-20T08:39:48.639Z,2.50
2018-01-20T08:42:16.073Z,2.60
2018-01-20T08:44:43.506Z,2.50
2018-01-20T08:47:11.061Z,2.50
2018-01-20T08:49:38.698Z,2.50
2018-01-20T08:52:06.139Z,2.60
2018-01-20T08:54:33.585Z,2.60
2018-01-20T08:57:01.435Z,2.60
2018-01-20T08:59:28.901Z,2.60
2018-01-20T09:01:56.382Z,2.70
2018-01-20T09:04:24.422Z,2.70
2018-01-20T09:06:51.939Z,2.70
2018-01-20T09:09:19.632Z,2.80
2018-01-20T09:11:47.554Z,2.70
2018-01-20T09:14:15.758Z,2.70
2018-01-20T09:16:43.538Z,2.70
2018-01-20T09:19:11.323Z,2.70
2018-01-20T09:21:39.071Z,2.80
2018-01-20T09:24:07.079Z,2.80
2018-01-20T09:26:34.867Z,2.80
2018-01-20T09:29:02.382Z,2.90
2018-01-20T09:31:29.853Z,2.90
2018-01-20T09:33:57.297Z,2.90
2018-01-20T09:36:24.734Z,2.90
2018-01-20T09:38:52.365Z,2.90
2018-01-20T09:41:19.873Z,3.00
2018-01-20T09:43:47.330Z,2.90
2018-01-20T09:46:15.157Z,3.00
2018-01-20T09:48:42.590Z,2.90
2018-01-20T09:51:10.086Z,2.90
2018-01-20T09:53:37.855Z,2.90
2018-01-20T09:56:05.486Z,2.90
2018-01-20T09:58:34.298Z,3.00
2018-01-20T10:01:01.990Z,3.00
2018-01-20T10:03:29.435Z,3.10
2018-01-20T10:05:56.996Z,3.10
2018-01-20T10:08:24.755Z,3.10
2018-01-20T10:10:52.405Z,3.10
2018-01-20T10:13:19.865Z,3.10
2018-01-20T10:15:47.411Z,3.10
2018-01-20T10:18:15.201Z,3.10
2018-01-20T10:20:42.630Z,3.20
2018-01-20T10:23:10.273Z,3.30
2018-01-20T10:25:37.884Z,3.30
2018-01-20T10:28:05.701Z,3.40
2018-01-20T10:30:33.394Z,3.50
2018-01-20T10:33:01.040Z,3.50
2018-01-20T10:35:28.618Z,3.40
2018-01-20T10:37:56.055Z,3.50
2018-01-20T10:40:23.498Z,3.60
2018-01-20T10:42:51.181Z,3.50
2018-01-20T10:45:19.065Z,3.50
2018-01-20T10:47:46.530Z,3.50
2018-01-20T10:50:14.284Z,3.40
2018-01-20T10:52:42.048Z,3.60
2018-01-20T10:55:09.611Z,3.50
2018-01-20T10:57:37.053Z,3.60
2018-01-20T11:00:04.655Z,3.70
2018-01-20T11:02:32.092Z,3.80
2018-01-20T11:05:00.642Z,3.90
2018-01-20T11:07:28.237Z,4.00
2018-01-20T11:09:56.070Z,3.90
2018-01-20T11:12:24.154Z,3.90
2018-01-20T11:14:51.825Z,4.00
2018-01-20T11:17:19.388Z,4.00
2018-01-20T11:19:46.838Z,4.10
2018-01-20T11:22:14.596Z,4.10
2018-01-20T11:24:42.361Z,4.10
2018-01-20T11:27:09.803Z,4.10
2018-01-20T11:29:37.245Z,4.10
2018-01-20T11:32:04.677Z,4.10
2018-01-20T11:34:32.125Z,4.10
2018-01-20T11:36:59.826Z,4.10
2018-01-20T11:39:27.413Z,4.10
2018-01-20T11:41:54.861Z,4.40
2018-01-20T11:44:22.323Z,4.70
2018-01-20T11:46:50.169Z,4.80
2018-01-20T11:49:17.602Z,4.90
2018-01-20T11:51:45.197Z,4.80
2018-01-20T11:54:12.673Z,5.00
2018-01-20T11:56:40.139Z,4.90
2018-01-20T11:59:07.653Z,4.90
2018-01-20T12:01:35.942Z,5.00
2018-01-20T12:04:03.378Z,4.90
2018-01-20T12:06:30.829Z,4.80
2018-01-20T12:08:59.360Z,4.70
2018-01-20T12:11:27.121Z,4.70
2018-01-20T12:13:54.791Z,4.60
2018-01-20T12:16:22.651Z,4.70
2018-01-20T12:18:50.306Z,4.70
2018-01-20T12:21:17.771Z,4.90
2018-01-20T12:23:45.241Z,4.90
2018-01-20T12:26:12.666Z,5.00
2018-01-20T12:28:40.147Z,4.90
2018-01-20T12:31:07.569Z,4.90
2018-01-20T12:33:35.035Z,5.00
2018-01-20T12:36:02.494Z,5.10
2018-01-20T12:38:29.985Z,4.90
2018-01-20T12:40:57.433Z,5.00
2018-01-20T12:43:24.868Z,5.10
2018-01-20T12:45:52.305Z,5.10
2018-01-20T12:48:19.760Z,5.30
2018-01-20T12:50:47.200Z,5.20
2018-01-20T12:53:15.909Z,5.40
2018-01-20T12:55:44.086Z,5.50
2018-01-20T12:58:11.541Z,5.40
2018-01-20T13:00:39.089Z,5.30
2018-01-20T13:03:06.782Z,5.30
2018-01-20T13:05:34.424Z,5.30
2018-01-20T13:08:01.897Z,5.20
2018-01-20T13:10:29.527Z,5.30
2018-01-20T13:12:57.136Z,5.10
2018-01-20T13:15:24.561Z,5.10
2018-01-20T13:17:52.337Z,5.10
2018-01-20T13:20:19.810Z,5.10
2018-01-20T13:22:47.542Z,5.10
2018-01-20T13:25:15.132Z,5.10
2018-01-20T13:27:42.798Z,5.00
2018-01-20T13:30:10.257Z,5.10
2018-01-20T13:32:37.731Z,5.00
2018-01-20T13:35:05.457Z,4.70
2018-01-20T13:37:32.937Z,4.80
2018-01-20T13:40:00.745Z,4.90
2018-01-20T13:42:28.453Z,4.90
2018-01-20T13:44:55.885Z,4.90
2018-01-20T13:47:23.412Z,4.70
2018-01-20T13:49:51.021Z,4.70
2018-01-20T13:52:18.693Z,4.70
2018-01-20T13:54:46.773Z,4.80
2018-01-20T13:57:14.395Z,4.80
2018-01-20T13:59:41.830Z,4.80
2018-01-20T14:02:09.342Z,4.80
2018-01-20T14:04:37.082Z,4.60
2018-01-20T14:07:04.510Z,4.60
2018-01-20T14:09:33.046Z,4.50
2018-01-20T14:12:00.701Z,4.50
2018-01-20T14:14:28.191Z,4.60
2018-01-20T14:16:55.907Z,4.70
2018-01-20T14:19:23.394Z,4.60
2018-01-20T14:21:51.113Z,4.70
2018-01-20T14:24:18.613Z,4.60
2018-01-20T14:26:46.047Z,4.60
2018-01-20T14:29:13.483Z,4.50
2018-01-20T14:31:41.104Z,4.50
2018-01-20T14:34:08.542Z,4.50
2018-01-20T14:36:35.974Z,4.50
2018-01-20T14:39:03.454Z,4.50
2018-01-20T14:41:31.229Z,4.50
2018-01-20T14:43:58.669Z,4.40
2018-01-20T14:46:26.188Z,4.50
2018-01-20T14:48:54.197Z,4.40
2018-01-20T14:51:21.862Z,4.40
2018-01-20T14:53:49.746Z,4.50
2018-01-20T14:56:17.177Z,4.40
2018-01-20T14:58:44.996Z,4.30
2018-01-20T15:01:12.609Z,4.40
2018-01-20T15:03:40.047Z,4.40
2018-01-20T15:06:07.638Z,4.30
2018-01-20T15:08:35.398Z,4.30
2018-01-20T15:11:02.857Z,4.30
2018-01-20T15:13:30.522Z,4.20
2018-01-20T15:15:57.979Z,4.20
2018-01-20T15:18:25.443Z,4.20
2018-01-20T15:20:52.871Z,4.10
2018-01-20T15:23:20.389Z,4.10
2018-01-20T15:25:48.706Z,4.10
2018-01-20T15:28:16.494Z,4.10
2018-01-20T15:30:43.959Z,4.10
2018-01-20T15:33:11.458Z,4.10
2018-01-20T15:35:40.405Z,4.10
2018-01-20T15:38:08.526Z,4.10
2018-01-20T15:40:36.363Z,4.10
2018-01-20T15:43:03.956Z,4.10
2018-01-20T15:45:31.398Z,4.00
2018-01-20T15:47:59.682Z,3.90
2018-01-20T15:50:27.535Z,3.90
2018-01-20T15:52:55.741Z,3.80
2018-01-20T15:55:23.406Z,3.80
2018-01-20T15:57:51.153Z,3.80
2018-01-20T16:00:19.578Z,3.80
2018-01-20T16:02:47.030Z,3.80
2018-01-20T16:05:14.537Z,3.80
2018-01-20T16:07:42.247Z,3.70
2018-01-20T16:10:09.681Z,3.70
2018-01-20T16:12:37.269Z,3.70
2018-01-20T16:15:04.720Z,3.60
2018-01-20T16:17:32.166Z,3.70
2018-01-20T16:19:59.997Z,3.50
2018-01-20T16:22:27.450Z,3.60
2018-01-20T16:24:54.880Z,3.60
2018-01-20T16:27:23.078Z,3.60
2018-01-20T16:29:50.525Z,3.60
2018-01-20T16:32:18.710Z,3.50
2018-01-20T16:34:46.182Z,3.50
2018-01-20T16:37:13.619Z,3.40
2018-01-20T16:39:41.058Z,3.40
2018-01-20T16:42:09.260Z,3.30
2018-01-20T16:44:36.740Z,3.30
2018-01-20T16:47:04.162Z,3.40
2018-01-20T16:49:31.654Z,3.30
2018-01-20T16:51:59.101Z,3.30
2018-01-20T16:54:26.533Z,3.30
2018-01-20T16:56:53.974Z,3.40
2018-01-20T16:59:22.174Z,3.20
2018-01-20T17:01:49.638Z,3.20
2018-01-20T17:04:17.080Z,3.20
2018-01-20T17:06:44.511Z,3.20
2018-01-20T17:09:12.748Z,3.20
2018-01-20T17:11:40.170Z,3.20
2018-01-20T17:14:07.594Z,3.20
2018-01-20T17:16:35.822Z,3.10
2018-01-20T17:19:03.259Z,3.10
2018-01-20T17:21:30.699Z,3.10
2018-01-20T17:23:58.146Z,3.00
2018-01-20T17:26:26.367Z,3.10
2018-01-20T17:28:53.801Z,3.10
2018-01-20T17:31:21.238Z,3.10
2018-01-20T17:33:49.461Z,3.10
2018-01-20T17:36:16.894Z,3.10
2018-01-20T17:38:44.579Z,3.10
2018-01-20T17:41:12.033Z,3.10
2018-01-20T17:43:39.466Z,3.10
2018-01-20T17:46:06.905Z,3.00
2018-01-20T17:48:34.341Z,3.00
2018-01-20T17:51:02.551Z,3.00
2018-01-20T17:53:30.011Z,3.00
2018-01-20T17:55:57.469Z,3.00
2018-01-20T17:58:24.882Z,3.00
2018-01-20T18:00:53.828Z,2.90
2018-01-20T18:03:21.258Z,2.90
2018-01-20T18:05:48.703Z,2.90
2018-01-20T18:08:16.913Z,2.90
2018-01-20T18:10:44.378Z,2.90
2018-01-20T18:13:11.819Z,2.90
2018-01-20T18:15:39.288Z,2.90
2018-01-20T18:18:06.722Z,2.90
2018-01-20T18:20:34.171Z,2.90
2018-01-20T18:23:01.602Z,2.90
2018-01-20T18:25:29.833Z,2.90
2018-01-20T18:27:57.294Z,2.80
2018-01-20T18:30:24.738Z,2.80
2018-01-20T18:32:52.167Z,2.80
2018-01-20T18:35:20.370Z,2.80
2018-01-20T18:37:47.793Z,2.70
2018-01-20T18:40:16.006Z,3.00
2018-01-20T18:42:43.449Z,3.00
2018-01-20T18:45:10.885Z,2.90
2018-01-20T18:47:39.074Z,2.90
2018-01-20T18:50:06.520Z,2.90
2018-01-20T18:52:33.955Z,2.80
2018-01-20T18:55:02.159Z,2.80
2018-01-20T18:57:29.591Z,2.80
2018-01-20T18:59:57.798Z,2.70
2018-01-20T19:02:25.230Z,2.70
2018-01-20T19:04:52.692Z,2.60
2018-01-20T19:07:20.118Z,2.60
2018-01-20T19:09:47.557Z,2.70
2018-01-20T19:12:14.981Z,2.60
2018-01-20T19:14:42.431Z,2.60
2018-01-20T19:17:09.872Z,2.60
2018-01-20T19:19:37.330Z,2.50
2018-01-20T19:22:04.765Z,2.50
2018-01-20T19:24:32.968Z,2.50
2018-01-20T19:27:00.402Z,2.50
2018-01-20T19:29:28.624Z,2.50
2018-01-20T19:31:56.067Z,2.50
2018-01-20T19:34:23.514Z,2.50
2018-01-20T19:36:50.953Z,2.50
2018-01-20T19:39:19.146Z,2.50
2018-01-20T19:41:46.599Z,2.50
2018-01-20T19:44:14.042Z,2.50
2018-01-20T19:46:41.500Z,2.50
2018-01-20T19:49:09.694Z,2.50
2018-01-20T19:51:37.190Z,2.50
2018-01-20T19:54:04.632Z,2.40
2018-01-20T19:56:32.067Z,2.50
2018-01-20T19:58:59.509Z,2.40
2018-01-20T20:01:26.951Z,2.40
2018-01-20T20:03:54.385Z,2.50
2018-01-20T20:06:21.826Z,2.50
2018-01-20T20:08:49.264Z,2.60
2018-01-20T20:11:16.706Z,2.50
2018-01-20T20:13:44.164Z,2.50
2018-01-20T20:16:11.605Z,2.50
2018-01-20T20:18:39.050Z,2.60
2018-01-20T20:21:07.263Z,2.50
2018-01-20T20:23:34.705Z,2.50
2018-01-20T20:26:02.158Z,2.50
2018-01-20T20:28:29.590Z,2.60
2018-01-20T20:30:57.810Z,2.60
2018-01-20T20:33:25.251Z,2.60
2018-01-20T20:35:52.689Z,2.60
2018-01-20T20:38:20.129Z,2.60
2018-01-20T20:40:48.340Z,2.70
2018-01-20T20:43:15.776Z,2.70
2018-01-20T20:45:43.998Z,2.60
2018-01-20T20:48:11.435Z,2.60
2018-01-20T20:50:38.872Z,2.60
2018-01-20T20:53:06.301Z,2.60
2018-01-20T20:55:34.517Z,2.50
2018-01-20T20:58:01.943Z,2.50
2018-01-20T21:00:29.385Z,2.50
2018-01-20T21:02:57.579Z,2.50
2018-01-20T21:05:25.023Z,2.50
2018-01-20T21:07:53.223Z,2.40
2018-01-20T21:10:20.665Z,2.40
2018-01-20T21:12:48.109Z,2.30
2018-01-20T21:15:16.314Z,2.40
2018-01-20T21:17:43.779Z,2.40
2018-01-20T21:20:11.223Z,2.30
2018-01-20T21:22:38.653Z,2.50
2018-01-20T21:25:06.885Z,2.40
2018-01-20T21:27:34.294Z,2.40
2018-01-20T21:30:01.729Z,2.40
2018-01-20T21:32:29.930Z,2.40
2018-01-20T21:34:57.374Z,2.40
2018-01-20T21:37:25.578Z,2.50
2018-01-20T21:39:53.010Z,2.50
2018-01-20T21:42:20.475Z,2.60
2018-01-20T21:44:47.902Z,2.60
2018-01-20T21:47:16.102Z,2.60
2018-01-20T21:49:49.278Z,2.60
2018-01-20T21:52:17.481Z,2.60
2018-01-20T21:54:44.924Z,2.60
2018-01-20T21:57:12.382Z,2.60
2018-01-20T21:59:39.810Z,2.70
2018-01-20T22:02:08.049Z,2.70
2018-01-20T22:04:35.454Z,2.70
2018-01-20T22:07:02.894Z,2.60
2018-01-20T22:09:30.325Z,2.50
2018-01-20T22:11:57.766Z,2.50
2018-01-20T22:14:25.198Z,2.50
2018-01-20T22:16:52.638Z,2.50
2018-01-20T22:19:20.830Z,2.40
2018-01-20T22:21:48.274Z,2.40
2018-01-20T22:24:15.703Z,2.40
2018-01-20T22:26:43.143Z,2.30
2018-01-20T22:29:10.582Z,2.20
2018-01-20T22:31:38.034Z,2.10
2018-01-20T22:34:05.453Z,2.10
2018-01-20T22:36:32.895Z,2.20
2018-01-20T22:39:01.094Z,2.20
2018-01-20T22:41:28.529Z,2.20
2018-01-20T22:43:56.722Z,2.40
2018-01-20T22:46:24.162Z,2.40
2018-01-20T22:48:52.371Z,2.50
2018-01-20T22:51:19.810Z,2.40
2018-01-20T22:53:47.242Z,2.40
2018-01-20T22:56:15.442Z,2.00
2018-01-20T22:58:42.886Z,2.00
2018-01-20T23:01:15.959Z,2.10
2018-01-20T23:03:44.162Z,2.20
2018-01-20T23:06:12.037Z,2.10
2018-01-20T23:08:39.450Z,2.10
2018-01-20T23:11:07.653Z,2.00
2018-01-20T23:13:35.094Z,2.00
2018-01-20T23:16:03.321Z,1.90
2018-01-20T23:18:30.769Z,1.90
2018-01-20T23:20:58.207Z,1.90
2018-01-20T23:23:25.632Z,1.90
2018-01-20T23:25:53.843Z,1.90
2018-01-20T23:28:21.267Z,1.80
2018-01-20T23:30:49.482Z,1.70
2018-01-20T23:33:16.919Z,1.70
2018-01-20T23:35:44.361Z,1.80
2018-01-20T23:38:12.554Z,2.00
2018-01-20T23:40:39.977Z,1.90
2018-01-20T23:43:08.177Z,2.00
2018-01-20T23:45:35.606Z,2.00
2018-01-20T23:48:03.814Z,2.00
2018-01-20T23:50:31.237Z,2.00
2018-01-20T23:52:59.437Z,2.00
2018-01-20T23:55:26.874Z,2.00
2018-01-20T23:57:55.078Z,2.10
